createdAt,value
2018-06-30T00:00:36.179Z,101912.97
2018-06-30T00:03:05.826Z,101909.55
2018-06-30T00:05:35.419Z,101908.48
2018-06-30T00:08:04.985Z,101909.07
2018-06-30T00:10:35.272Z,101905.84
2018-06-30T00:13:04.790Z,101909.66
2018-06-30T00:15:34.315Z,101916.91
2018-06-30T00:18:03.849Z,101916.62
2018-06-30T00:20:33.614Z,101923.94
2018-06-30T00:23:03.152Z,101919.04
2018-06-30T00:25:32.646Z,101919.62
2018-06-30T00:28:02.189Z,101919.50
2018-06-30T00:30:31.860Z,101914.81
2018-06-30T00:33:01.884Z,101914.61
2018-06-30T00:35:31.417Z,101911.23
2018-06-30T00:38:01.028Z,101912.11
2018-06-30T00:40:30.737Z,101905.88
2018-06-30T00:43:00.562Z,101908.17
2018-06-30T00:45:30.507Z,101908.23
2018-06-30T00:48:01.515Z,101903.28
2018-06-30T00:50:31.151Z,101906.46
2018-06-30T00:53:00.787Z,101902.78
2018-06-30T00:55:31.616Z,101894.88
2018-06-30T00:58:01.638Z,101901.96
2018-06-30T01:00:31.557Z,101894.95
2018-06-30T01:03:01.509Z,101900.48
2018-06-30T01:05:31.726Z,101898.16
2018-06-30T01:08:01.460Z,101902.23
2018-06-30T01:10:31.283Z,101902.18
2018-06-30T01:13:01.009Z,101899.95
2018-06-30T01:15:30.693Z,101911.83
2018-06-30T01:18:00.188Z,101907.70
2018-06-30T01:20:32.914Z,101902.50
2018-06-30T01:23:03.495Z,101906.33
2018-06-30T01:25:33.451Z,101907.39
2018-06-30T01:28:02.996Z,101907.09
2018-06-30T01:30:33.477Z,101911.22
2018-06-30T01:33:03.913Z,101910.93
2018-06-30T01:35:33.628Z,101909.28
2018-06-30T01:38:04.755Z,101906.05
2018-06-30T01:40:34.493Z,101901.67
2018-06-30T01:43:04.960Z,101900.36
2018-06-30T01:45:34.583Z,101906.27
2018-06-30T01:48:04.457Z,101906.27
2018-06-30T01:50:35.673Z,101900.07
2018-06-30T01:53:05.461Z,101889.21
2018-06-30T01:55:35.207Z,101888.41
2018-06-30T01:58:05.174Z,101892.53
2018-06-30T02:00:34.821Z,101883.27
2018-06-30T02:03:12.939Z,101891.10
2018-06-30T02:05:43.366Z,101886.88
2018-06-30T02:08:14.456Z,101889.81
2018-06-30T02:10:44.536Z,101881.69
2018-06-30T02:13:14.109Z,101886.58
2018-06-30T02:15:43.715Z,101892.55
2018-06-30T02:18:14.090Z,101884.80
2018-06-30T02:20:44.052Z,101888.15
2018-06-30T02:23:13.617Z,101889.50
2018-06-30T02:25:45.066Z,101891.48
2018-06-30T02:28:14.611Z,101890.09
2018-06-30T02:30:44.255Z,101889.08
2018-06-30T02:33:13.943Z,101889.38
2018-06-30T02:35:44.345Z,101887.77
2018-06-30T02:38:15.104Z,101885.52
2018-06-30T02:40:44.682Z,101878.58
2018-06-30T02:43:14.638Z,101885.91
2018-06-30T02:45:44.615Z,101882.90
2018-06-30T02:48:17.996Z,101883.34
2018-06-30T02:50:47.659Z,101880.69
2018-06-30T02:53:17.761Z,101887.66
2018-06-30T02:55:48.761Z,101884.91
2018-06-30T02:58:18.216Z,101887.52
2018-06-30T03:00:48.033Z,101882.85
2018-06-30T03:03:18.403Z,101888.90
2018-06-30T03:05:47.651Z,101878.33
2018-06-30T03:08:17.651Z,101882.95
2018-06-30T03:10:47.227Z,101883.37
2018-06-30T03:13:19.264Z,101881.95
2018-06-30T03:15:49.038Z,101886.56
2018-06-30T03:18:21.048Z,101890.57
2018-06-30T03:20:51.389Z,101887.39
2018-06-30T03:23:20.939Z,101882.20
2018-06-30T03:25:50.707Z,101888.27
2018-06-30T03:28:20.743Z,101879.88
2018-06-30T03:30:53.445Z,101880.51
2018-06-30T03:33:23.798Z,101881.81
2018-06-30T03:35:54.969Z,101883.24
2018-06-30T03:38:24.630Z,101878.34
2018-06-30T03:41:00.908Z,101881.69
2018-06-30T03:43:30.525Z,101881.27
2018-06-30T03:46:01.045Z,101879.38
2018-06-30T03:48:30.665Z,101872.39
2018-06-30T03:51:00.304Z,101878.73
2018-06-30T03:53:29.835Z,101873.98
2018-06-30T03:55:59.352Z,101872.19
2018-06-30T03:58:29.025Z,101876.31
2018-06-30T04:01:01.311Z,101878.59
2018-06-30T04:03:30.823Z,101881.10
2018-06-30T04:06:00.962Z,101881.34
2018-06-30T04:08:30.712Z,101877.89
2018-06-30T04:11:00.852Z,101880.71
2018-06-30T04:13:30.390Z,101880.42
2018-06-30T04:16:00.059Z,101888.38
2018-06-30T04:18:30.349Z,101883.77
2018-06-30T04:20:59.939Z,101890.41
2018-06-30T04:23:29.520Z,101894.04
2018-06-30T04:25:59.451Z,101890.02
2018-06-30T04:28:29.200Z,101883.75
2018-06-30T04:30:58.892Z,101885.89
2018-06-30T04:33:28.898Z,101880.36
2018-06-30T04:35:58.674Z,101884.58
2018-06-30T04:38:29.356Z,101882.48
2018-06-30T04:40:59.615Z,101881.50
2018-06-30T04:43:29.078Z,101880.91
2018-06-30T04:45:58.826Z,101875.29
2018-06-30T04:48:28.404Z,101876.23
2018-06-30T04:50:58.145Z,101871.86
2018-06-30T04:53:27.740Z,101869.81
2018-06-30T04:55:58.021Z,101867.66
2018-06-30T04:58:27.764Z,101868.28
2018-06-30T05:00:58.077Z,101863.27
2018-06-30T05:03:28.206Z,101869.75
2018-06-30T05:05:57.855Z,101866.78
2018-06-30T05:08:27.458Z,101859.72
2018-06-30T05:10:56.958Z,101859.27
2018-06-30T05:13:27.132Z,101861.77
2018-06-30T05:15:58.296Z,101864.77
2018-06-30T05:18:33.346Z,101865.33
2018-06-30T05:21:03.138Z,101867.75
2018-06-30T05:23:32.698Z,101864.99
2018-06-30T05:26:02.420Z,101868.65
2018-06-30T05:28:32.280Z,101861.35
2018-06-30T05:31:01.861Z,101866.03
2018-06-30T05:33:32.191Z,101866.05
2018-06-30T05:36:02.005Z,101869.67
2018-06-30T05:38:31.898Z,101875.99
2018-06-30T05:41:01.771Z,101871.97
2018-06-30T05:43:31.426Z,101878.28
2018-06-30T05:46:01.294Z,101873.27
2018-06-30T05:48:31.121Z,101880.25
2018-06-30T05:51:00.860Z,101872.73
2018-06-30T05:53:30.539Z,101875.53
2018-06-30T05:56:00.656Z,101873.96
2018-06-30T05:58:31.586Z,101875.02
2018-06-30T06:01:01.089Z,101870.35
2018-06-30T06:03:30.758Z,101873.87
2018-06-30T06:06:00.720Z,101872.81
2018-06-30T06:08:30.337Z,101871.72
2018-06-30T06:11:00.228Z,101875.46
2018-06-30T06:13:29.870Z,101870.21
2018-06-30T06:15:59.382Z,101870.41
2018-06-30T06:18:28.899Z,101864.55
2018-06-30T06:20:58.616Z,101866.51
2018-06-30T06:23:28.315Z,101867.44
2018-06-30T06:25:58.669Z,101860.61
2018-06-30T06:28:28.155Z,101862.24
2018-06-30T06:30:57.724Z,101861.89
2018-06-30T06:33:27.584Z,101863.98
2018-06-30T06:35:57.556Z,101867.31
2018-06-30T06:38:27.220Z,101862.80
2018-06-30T06:40:57.900Z,101859.41
2018-06-30T06:43:27.452Z,101856.28
2018-06-30T06:45:57.051Z,101858.61
2018-06-30T06:48:26.820Z,101854.28
2018-06-30T06:50:56.297Z,101843.98
2018-06-30T06:53:25.922Z,101844.68
2018-06-30T06:55:55.941Z,101839.98
2018-06-30T06:58:28.002Z,101846.91
2018-06-30T07:00:57.478Z,101844.17
2018-06-30T07:03:27.090Z,101836.66
2018-06-30T07:05:56.558Z,101840.14
2018-06-30T07:08:26.109Z,101840.17
2018-06-30T07:10:55.304Z,101832.97
2018-06-30T07:13:25.315Z,101839.23
2018-06-30T07:15:55.719Z,101832.39
2018-06-30T07:18:25.232Z,101833.98
2018-06-30T07:20:54.727Z,101832.63
2018-06-30T07:23:24.164Z,101820.58
2018-06-30T07:25:53.946Z,101824.66
2018-06-30T07:28:23.368Z,101825.26
2018-06-30T07:30:53.403Z,101823.45
2018-06-30T07:33:23.681Z,101824.66
2018-06-30T07:35:53.256Z,101826.00
2018-06-30T07:38:22.788Z,101822.41
2018-06-30T07:40:52.362Z,101822.67
2018-06-30T07:43:21.894Z,101813.53
2018-06-30T07:45:51.428Z,101820.75
2018-06-30T07:48:21.071Z,101818.55
2018-06-30T07:50:50.595Z,101812.29
2018-06-30T07:53:20.116Z,101812.61
2018-06-30T07:55:49.569Z,101817.68
2018-06-30T07:58:19.114Z,101817.73
2018-06-30T08:00:49.285Z,101815.11
2018-06-30T08:03:18.849Z,101799.30
2018-06-30T08:05:49.731Z,101797.03
2018-06-30T08:08:21.202Z,101803.50
2018-06-30T08:10:51.872Z,101797.59
2018-06-30T08:13:22.915Z,101796.95
2018-06-30T08:15:53.538Z,101790.30
2018-06-30T08:18:25.112Z,101790.34
2018-06-30T08:20:54.571Z,101793.64
2018-06-30T08:23:24.312Z,101788.67
2018-06-30T08:25:53.886Z,101786.51
2018-06-30T08:28:23.988Z,101788.88
2018-06-30T08:30:53.457Z,101789.00
2018-06-30T08:33:22.910Z,101787.64
2018-06-30T08:35:52.456Z,101795.45
2018-06-30T08:38:21.906Z,101800.03
2018-06-30T08:40:51.314Z,101792.64
2018-06-30T08:43:20.853Z,101803.55
2018-06-30T08:45:50.316Z,101797.05
2018-06-30T08:48:19.768Z,101797.09
2018-06-30T08:50:49.218Z,101801.05
2018-06-30T08:53:18.727Z,101805.82
2018-06-30T08:55:48.178Z,101802.83
2018-06-30T08:58:17.656Z,101799.00
2018-06-30T09:00:47.161Z,101799.89
2018-06-30T09:03:16.794Z,101797.19
2018-06-30T09:05:46.283Z,101800.11
2018-06-30T09:08:15.726Z,101797.41
2018-06-30T09:10:45.342Z,101798.83
2018-06-30T09:13:14.801Z,101799.08
2018-06-30T09:15:44.403Z,101798.83
2018-06-30T09:18:14.400Z,101800.07
2018-06-30T09:20:44.710Z,101797.46
2018-06-30T09:23:14.278Z,101797.31
2018-06-30T09:25:43.776Z,101791.48
2018-06-30T09:28:13.280Z,101799.84
2018-06-30T09:30:42.797Z,101791.91
2018-06-30T09:33:12.349Z,101787.37
2018-06-30T09:35:41.746Z,101793.59
2018-06-30T09:38:11.436Z,101794.94
2018-06-30T09:40:41.248Z,101797.34
2018-06-30T09:43:10.928Z,101795.93
2018-06-30T09:45:40.518Z,101800.14
2018-06-30T09:48:10.590Z,101791.17
2018-06-30T09:50:40.117Z,101800.70
2018-06-30T09:53:09.646Z,101800.08
2018-06-30T09:55:39.241Z,101799.80
2018-06-30T09:58:09.019Z,101795.99
2018-06-30T10:00:43.755Z,101795.99
